createdAt,value
2023-03-31T00:00:53.171Z,7.25
2023-03-31T00:04:02.322Z,8.93
2023-03-31T00:07:06.193Z,9.02
2023-03-31T00:13:18.474Z,7.93
2023-03-31T00:16:20.877Z,7.80
2023-03-31T00:19:22.938Z,7.18
2023-03-31T00:22:27.595Z,7.28
2023-03-31T00:25:29.681Z,9.40
2023-03-31T00:28:31.631Z,9.15
2023-03-31T00:31:35.029Z,10.70
2023-03-31T00:34:37.448Z,7.75
2023-03-31T00:37:39.504Z,8.15
2023-03-31T00:40:47.789Z,8.27
2023-03-31T00:44:13.213Z,8.02
2023-03-31T00:47:19.862Z,7.30
2023-03-31T00:50:49.418Z,7.60
2023-03-31T00:54:01.010Z,8.13
2023-03-31T00:57:06.902Z,7.78
2023-03-31T01:00:15.594Z,9.30
2023-03-31T01:03:18.717Z,6.95
2023-03-31T01:06:20.871Z,9.88
2023-03-31T01:09:35.025Z,8.80
2023-03-31T01:12:47.798Z,8.15
2023-03-31T01:15:50.151Z,8.95
2023-03-31T01:18:52.386Z,9.25
2023-03-31T01:22:05.625Z,7.63
2023-03-31T01:25:22.282Z,7.53
2023-03-31T01:28:27.365Z,8.15
2023-03-31T01:31:44.269Z,7.78
2023-03-31T01:35:04.711Z,9.20
2023-03-31T01:38:27.950Z,8.40
2023-03-31T01:42:02.045Z,9.48
2023-03-31T01:45:33.904Z,8.90
2023-03-31T01:48:49.272Z,8.75
2023-03-31T01:52:06.460Z,6.72
2023-03-31T01:55:16.260Z,7.05
2023-03-31T01:58:25.778Z,8.98
2023-03-31T02:01:41.001Z,7.68
2023-03-31T02:04:49.943Z,8.85
2023-03-31T02:08:31.322Z,9.15
2023-03-31T02:11:34.211Z,8.43
2023-03-31T02:14:39.636Z,8.52
2023-03-31T02:17:46.083Z,7.63
2023-03-31T02:20:50.161Z,9.32
2023-03-31T02:23:52.596Z,8.85
2023-03-31T02:27:26.511Z,8.27
2023-03-31T02:30:55.378Z,8.40
2023-03-31T02:33:57.589Z,9.02
2023-03-31T02:36:59.636Z,8.07
2023-03-31T02:40:10.612Z,8.07
2023-03-31T02:43:12.664Z,7.60
2023-03-31T02:46:14.776Z,7.28
2023-03-31T02:49:18.422Z,7.88
2023-03-31T02:52:29.429Z,7.65
2023-03-31T02:55:43.745Z,6.30
2023-03-31T02:58:54.759Z,5.30
2023-03-31T03:02:19.603Z,8.57
2023-03-31T03:05:35.622Z,6.65
2023-03-31T03:08:40.529Z,6.20
2023-03-31T03:11:58.440Z,8.38
2023-03-31T03:15:09.287Z,6.80
2023-03-31T03:18:11.331Z,7.45
2023-03-31T03:21:13.404Z,6.60
2023-03-31T03:24:18.800Z,8.90
2023-03-31T03:27:24.066Z,8.52
2023-03-31T03:30:26.188Z,5.05
2023-03-31T03:33:28.226Z,6.75
2023-03-31T03:36:30.470Z,6.80
2023-03-31T03:39:32.920Z,7.72
2023-03-31T03:42:36.168Z,6.28
2023-03-31T03:45:38.532Z,6.63
2023-03-31T03:48:40.538Z,7.28
2023-03-31T03:51:42.617Z,8.07
2023-03-31T03:54:44.737Z,8.18
2023-03-31T03:57:46.706Z,8.18
2023-03-31T04:00:49.417Z,6.13
2023-03-31T04:03:51.564Z,6.68
2023-03-31T04:06:53.699Z,8.65
2023-03-31T04:09:55.897Z,7.47
2023-03-31T04:12:58.142Z,6.03
2023-03-31T04:16:06.260Z,6.80
2023-03-31T04:19:12.064Z,8.07
2023-03-31T04:22:15.506Z,6.78
2023-03-31T04:25:18.063Z,6.90
2023-03-31T04:28:20.259Z,6.50
2023-03-31T04:31:25.690Z,10.68
2023-03-31T04:34:35.450Z,9.35
2023-03-31T04:37:40.758Z,7.97
2023-03-31T04:40:42.711Z,6.80
2023-03-31T04:43:45.081Z,7.13
2023-03-31T04:46:47.086Z,6.25
2023-03-31T04:49:49.051Z,6.40
2023-03-31T04:52:50.983Z,8.75
2023-03-31T04:55:53.205Z,6.10
2023-03-31T04:58:55.291Z,8.43
2023-03-31T05:01:57.762Z,6.53
2023-03-31T05:04:59.795Z,9.32
2023-03-31T05:08:02.092Z,8.13
2023-03-31T05:11:04.912Z,8.80
2023-03-31T05:14:07.048Z,7.18
2023-03-31T05:17:09.128Z,8.23
2023-03-31T05:20:14.800Z,6.72
2023-03-31T05:23:16.854Z,7.75
2023-03-31T05:26:18.990Z,8.57
2023-03-31T05:29:21.398Z,8.30
2023-03-31T05:32:23.431Z,7.13
2023-03-31T05:35:26.026Z,8.45
2023-03-31T05:38:31.858Z,8.65
2023-03-31T05:41:33.964Z,8.55
2023-03-31T05:44:36.156Z,7.60
2023-03-31T05:47:38.295Z,9.68
2023-03-31T05:50:40.399Z,8.05
2023-03-31T05:53:42.563Z,9.25
2023-03-31T05:56:44.633Z,7.75
2023-03-31T05:59:46.707Z,7.50
2023-03-31T06:02:48.848Z,9.68
2023-03-31T06:05:54.174Z,9.23
2023-03-31T06:08:56.464Z,11.55
2023-03-31T06:11:58.501Z,9.38
2023-03-31T06:15:00.572Z,7.60
2023-03-31T06:18:02.734Z,9.75
2023-03-31T06:21:06.404Z,8.63
2023-03-31T06:24:10.234Z,9.77
2023-03-31T06:27:12.365Z,8.37
2023-03-31T06:30:17.130Z,7.28
2023-03-31T06:33:19.076Z,9.23
2023-03-31T06:36:22.794Z,7.72
2023-03-31T06:39:27.677Z,9.57
2023-03-31T06:42:31.044Z,11.05
2023-03-31T06:45:33.255Z,9.60
2023-03-31T06:48:35.683Z,9.02
2023-03-31T06:51:37.805Z,9.30
2023-03-31T06:54:40.073Z,7.30
2023-03-31T06:57:42.472Z,8.50
2023-03-31T07:00:46.210Z,11.30
2023-03-31T07:03:48.350Z,8.10
2023-03-31T07:06:50.361Z,8.88
2023-03-31T07:09:52.458Z,8.38
2023-03-31T07:12:54.573Z,12.48
2023-03-31T07:15:57.344Z,10.02
2023-03-31T07:18:59.743Z,8.25
2023-03-31T07:22:01.775Z,9.95
2023-03-31T07:25:03.947Z,8.57
2023-03-31T07:28:07.137Z,7.95
2023-03-31T07:31:13.269Z,9.48
2023-03-31T07:34:15.725Z,7.07
2023-03-31T07:37:17.954Z,6.88
2023-03-31T07:40:29.439Z,8.60
2023-03-31T07:43:31.510Z,7.13
2023-03-31T07:46:33.727Z,6.57
2023-03-31T07:49:36.646Z,7.80
2023-03-31T07:52:41.429Z,7.15
2023-03-31T07:55:43.590Z,7.78
2023-03-31T07:58:46.469Z,7.90
2023-03-31T08:01:48.819Z,5.65
2023-03-31T08:04:51.224Z,6.13
2023-03-31T08:07:53.386Z,6.57
2023-03-31T08:10:55.616Z,7.85
2023-03-31T08:13:58.717Z,24.25
2023-03-31T08:17:00.856Z,7.18
2023-03-31T08:20:08.010Z,8.63
2023-03-31T08:23:12.156Z,6.78
2023-03-31T08:26:22.045Z,6.00
2023-03-31T08:29:24.185Z,6.22
2023-03-31T08:32:26.260Z,6.25
2023-03-31T08:35:28.346Z,6.88
2023-03-31T08:38:30.937Z,6.18
2023-03-31T08:41:36.475Z,4.70
2023-03-31T08:45:06.681Z,7.70
2023-03-31T08:48:34.517Z,6.90
2023-03-31T08:51:56.290Z,5.35
2023-03-31T08:55:01.797Z,6.75
2023-03-31T08:58:45.650Z,6.47
2023-03-31T09:02:34.944Z,6.05
2023-03-31T09:06:00.052Z,6.32
2023-03-31T09:09:05.729Z,6.80
2023-03-31T09:12:17.895Z,5.75
2023-03-31T09:15:36.270Z,6.50
2023-03-31T09:18:41.206Z,5.82
2023-03-31T09:21:51.911Z,5.45
2023-03-31T09:25:16.093Z,5.20
2023-03-31T09:28:35.191Z,4.68
2023-03-31T09:31:39.121Z,4.78
2023-03-31T09:34:43.331Z,5.20
2023-03-31T09:37:45.654Z,5.25
2023-03-31T09:40:48.071Z,5.00
2023-03-31T09:43:51.476Z,4.35
2023-03-31T09:46:55.134Z,5.45
2023-03-31T09:49:57.391Z,5.15
2023-03-31T09:53:02.063Z,5.72
2023-03-31T09:56:08.469Z,5.50
2023-03-31T09:59:30.955Z,5.00
2023-03-31T10:02:33.197Z,6.30
2023-03-31T10:05:38.469Z,7.25
2023-03-31T10:09:02.888Z,7.97
2023-03-31T10:12:16.053Z,5.70
2023-03-31T10:15:27.622Z,6.20
2023-03-31T10:18:36.112Z,5.32
2023-03-31T10:21:39.088Z,7.05
2023-03-31T10:24:46.417Z,6.88
2023-03-31T10:27:52.961Z,6.63
2023-03-31T10:31:01.565Z,6.63
2023-03-31T10:34:18.128Z,5.95
2023-03-31T10:37:24.299Z,7.35
2023-03-31T10:40:29.529Z,6.72
2023-03-31T10:43:48.231Z,6.13
2023-03-31T10:46:55.455Z,7.20
2023-03-31T10:49:58.389Z,6.88
2023-03-31T10:53:14.947Z,6.43
2023-03-31T10:56:37.837Z,7.13
2023-03-31T11:00:05.918Z,4.97
2023-03-31T11:03:32.254Z,5.60
2023-03-31T11:06:49.480Z,5.40
2023-03-31T11:10:09.555Z,6.85
2023-03-31T11:13:20.928Z,6.80
2023-03-31T11:16:39.761Z,8.15
2023-03-31T11:20:13.015Z,7.03
2023-03-31T11:23:24.713Z,7.28
2023-03-31T11:26:28.247Z,6.72
2023-03-31T11:29:34.027Z,6.78
2023-03-31T11:33:06.019Z,8.73
2023-03-31T11:36:29.023Z,6.30
2023-03-31T11:39:51.251Z,9.40
2023-03-31T11:43:28.734Z,7.45
2023-03-31T11:47:01.404Z,7.03
2023-03-31T11:50:20.971Z,5.53
2023-03-31T11:53:35.840Z,3.58
2023-03-31T11:56:40.692Z,5.97
2023-03-31T11:59:46.198Z,4.63
2023-03-31T12:03:14.916Z,4.90
2023-03-31T12:06:21.611Z,4.72
2023-03-31T12:09:30.728Z,5.75
2023-03-31T12:12:37.409Z,5.70
2023-03-31T12:15:51.688Z,5.15
2023-03-31T12:18:56.501Z,3.90
2023-03-31T12:22:10.248Z,4.95
2023-03-31T12:25:23.257Z,4.22
2023-03-31T12:28:28.289Z,5.90
2023-03-31T12:31:33.347Z,3.78
2023-03-31T12:34:39.774Z,5.30
2023-03-31T12:37:59.962Z,3.17
2023-03-31T12:41:15.050Z,4.40
2023-03-31T12:44:49.684Z,4.18
2023-03-31T12:48:03.977Z,4.72
2023-03-31T12:51:13.621Z,6.38
2023-03-31T12:54:48.940Z,5.63
2023-03-31T12:57:51.241Z,6.60
2023-03-31T13:01:14.983Z,4.72
2023-03-31T13:04:29.262Z,4.27
2023-03-31T13:07:31.262Z,6.00
2023-03-31T13:10:58.312Z,4.75
2023-03-31T13:14:07.547Z,4.90
2023-03-31T13:17:41.507Z,4.93
2023-03-31T13:20:43.738Z,4.57
2023-03-31T13:23:47.231Z,4.75
2023-03-31T13:26:51.115Z,3.53
2023-03-31T13:29:54.517Z,5.35
2023-03-31T13:33:15.010Z,5.07
2023-03-31T13:36:33.045Z,6.22
2023-03-31T13:39:48.463Z,5.15
2023-03-31T13:43:19.097Z,4.07
2023-03-31T13:46:46.280Z,3.70
2023-03-31T13:49:54.958Z,2.95
2023-03-31T13:53:14.918Z,4.40
2023-03-31T13:56:52.842Z,4.25
2023-03-31T14:00:14.418Z,2.80
2023-03-31T14:03:43.958Z,3.70
2023-03-31T14:07:00.427Z,4.75
2023-03-31T14:10:04.506Z,4.60
2023-03-31T14:13:12.610Z,5.97
2023-03-31T14:16:15.981Z,5.40
2023-03-31T14:19:44.289Z,4.43
2023-03-31T14:23:12.648Z,4.80
2023-03-31T14:26:36.098Z,4.40
2023-03-31T14:29:51.669Z,5.07
2023-03-31T14:33:17.603Z,4.72
2023-03-31T14:36:46.953Z,4.60
2023-03-31T14:39:56.421Z,4.47
2023-03-31T14:43:00.311Z,5.57
2023-03-31T14:46:09.804Z,3.90
2023-03-31T14:49:38.864Z,4.50
2023-03-31T14:52:46.198Z,3.33
2023-03-31T14:55:58.711Z,2.88
2023-03-31T14:59:03.065Z,6.60
2023-03-31T15:02:06.590Z,3.35
2023-03-31T15:05:16.356Z,3.10
2023-03-31T15:08:22.283Z,3.65
2023-03-31T15:11:24.487Z,4.63
2023-03-31T15:14:36.700Z,4.22
2023-03-31T15:17:42.094Z,5.05
2023-03-31T15:20:46.125Z,6.25
2023-03-31T15:23:53.208Z,5.72
2023-03-31T15:26:58.439Z,4.32
2023-03-31T15:30:21.153Z,5.38
2023-03-31T15:33:31.908Z,6.85
2023-03-31T15:36:34.095Z,6.25
2023-03-31T15:39:37.803Z,6.35
2023-03-31T15:42:41.216Z,5.28
2023-03-31T15:45:57.617Z,6.38
2023-03-31T15:49:00.580Z,5.57
2023-03-31T15:52:03.448Z,5.78
2023-03-31T15:55:23.801Z,4.65
2023-03-31T15:59:06.125Z,4.35
2023-03-31T16:02:13.582Z,5.55
2023-03-31T16:05:47.314Z,4.68
2023-03-31T16:09:08.420Z,4.45
2023-03-31T16:12:32.292Z,5.05
2023-03-31T16:15:46.765Z,5.83
2023-03-31T16:22:05.121Z,4.30
2023-03-31T16:25:16.550Z,5.80
2023-03-31T16:28:23.018Z,5.43
2023-03-31T16:31:42.348Z,5.47
2023-03-31T16:35:00.770Z,6.43
2023-03-31T16:38:04.597Z,5.93
2023-03-31T16:41:09.829Z,5.30
2023-03-31T16:44:12.058Z,5.85
2023-03-31T16:47:23.528Z,6.68
2023-03-31T16:50:35.314Z,5.95
2023-03-31T16:53:37.795Z,4.63
2023-03-31T16:56:39.974Z,6.13
2023-03-31T16:59:42.903Z,5.32
2023-03-31T17:02:45.422Z,5.85
2023-03-31T17:05:51.032Z,5.45
2023-03-31T17:08:53.080Z,6.95
2023-03-31T17:11:55.959Z,7.50
2023-03-31T17:14:58.038Z,5.45
2023-03-31T17:18:00.441Z,5.88
2023-03-31T17:21:08.974Z,5.25
2023-03-31T17:24:12.375Z,5.68
2023-03-31T17:27:14.401Z,4.38
2023-03-31T17:30:16.620Z,5.60
2023-03-31T17:33:21.933Z,5.72
2023-03-31T17:36:24.636Z,4.68
2023-03-31T17:39:27.804Z,5.53
2023-03-31T17:42:33.928Z,5.57
2023-03-31T17:45:36.246Z,6.30
2023-03-31T17:48:39.282Z,5.03
2023-03-31T17:51:41.300Z,7.72
2023-03-31T17:54:47.418Z,5.43
2023-03-31T17:57:51.602Z,6.15
2023-03-31T18:00:54.347Z,5.35
2023-03-31T18:03:58.427Z,6.13
2023-03-31T18:07:00.623Z,5.38
2023-03-31T18:10:05.699Z,5.43
2023-03-31T18:13:08.000Z,4.95
2023-03-31T18:16:13.033Z,6.70
2023-03-31T18:19:15.736Z,6.32
2023-03-31T18:22:17.831Z,7.75
2023-03-31T18:25:19.887Z,6.75
2023-03-31T18:28:22.297Z,7.32
2023-03-31T18:31:26.961Z,5.32
2023-03-31T18:34:29.261Z,7.13
2023-03-31T18:37:31.743Z,8.15
2023-03-31T18:40:34.055Z,6.00
2023-03-31T18:43:36.115Z,11.40
2023-03-31T18:46:38.118Z,5.80
2023-03-31T18:49:40.586Z,6.57
2023-03-31T18:52:42.615Z,6.55
2023-03-31T18:55:49.044Z,7.13
2023-03-31T18:58:51.861Z,5.85
2023-03-31T19:01:54.017Z,8.75
2023-03-31T19:04:56.248Z,9.63
2023-03-31T19:07:59.231Z,8.02
2023-03-31T19:11:10.761Z,7.72
2023-03-31T19:14:13.761Z,7.65
2023-03-31T19:17:18.427Z,8.05
2023-03-31T19:20:20.818Z,9.25
2023-03-31T19:23:25.509Z,6.75
2023-03-31T19:26:29.467Z,9.05
2023-03-31T19:29:32.762Z,8.85
2023-03-31T19:32:35.088Z,7.63
2023-03-31T19:35:42.105Z,7.90
2023-03-31T19:38:44.227Z,8.88
2023-03-31T19:41:46.820Z,9.82
2023-03-31T19:44:48.896Z,10.15
2023-03-31T19:47:51.119Z,10.65
2023-03-31T19:50:57.183Z,9.07
2023-03-31T19:53:59.262Z,10.88
2023-03-31T19:57:01.688Z,10.13
2023-03-31T20:00:05.394Z,10.52
2023-03-31T20:03:08.877Z,12.40
2023-03-31T20:06:13.858Z,12.52
2023-03-31T20:09:15.995Z,9.88
2023-03-31T20:12:18.104Z,8.90
2023-03-31T20:15:20.195Z,10.05
2023-03-31T20:18:22.565Z,11.57
2023-03-31T20:21:27.459Z,10.00
2023-03-31T20:24:32.159Z,11.48
2023-03-31T20:27:34.125Z,10.10
2023-03-31T20:30:38.735Z,9.10
2023-03-31T20:33:42.567Z,9.30
2023-03-31T20:36:46.532Z,11.10
2023-03-31T20:39:48.656Z,9.73
2023-03-31T20:42:50.690Z,9.38
2023-03-31T20:45:54.958Z,10.07
2023-03-31T20:48:58.224Z,10.52
2023-03-31T20:52:00.499Z,11.65
2023-03-31T20:55:02.493Z,11.25
2023-03-31T20:58:04.578Z,10.60
2023-03-31T21:01:06.907Z,11.10
2023-03-31T21:04:11.970Z,12.20
2023-03-31T21:07:14.202Z,10.50
2023-03-31T21:10:16.396Z,11.98
2023-03-31T21:13:18.566Z,10.57
2023-03-31T21:16:22.208Z,11.38
2023-03-31T21:19:24.441Z,11.13
2023-03-31T21:22:27.560Z,10.77
2023-03-31T21:25:32.756Z,11.70
2023-03-31T21:28:37.484Z,12.20
2023-03-31T21:31:41.684Z,12.75
2023-03-31T21:34:43.898Z,10.63
2023-03-31T21:37:45.962Z,11.10
2023-03-31T21:40:49.380Z,10.85
2023-03-31T21:43:51.745Z,11.32
2023-03-31T21:46:53.861Z,12.43
2023-03-31T21:49:56.020Z,11.05
2023-03-31T21:52:59.533Z,12.27
2023-03-31T21:56:01.662Z,10.00
2023-03-31T21:59:04.741Z,13.13
2023-03-31T22:02:06.893Z,10.07
2023-03-31T22:05:09.880Z,13.05
2023-03-31T22:08:11.951Z,8.35
2023-03-31T22:11:14.611Z,10.57
2023-03-31T22:14:16.658Z,10.77
2023-03-31T22:17:20.927Z,11.25
2023-03-31T22:20:23.215Z,12.25
2023-03-31T22:23:28.323Z,11.40
2023-03-31T22:26:34.470Z,10.52
2023-03-31T22:29:43.121Z,13.15
2023-03-31T22:32:45.563Z,12.18
2023-03-31T22:35:49.448Z,9.95
2023-03-31T22:38:51.429Z,12.52
2023-03-31T22:41:55.870Z,11.43
2023-03-31T22:48:01.741Z,12.82
2023-03-31T22:51:06.026Z,11.82
2023-03-31T22:54:11.475Z,10.35
2023-03-31T22:57:13.692Z,11.63
2023-03-31T23:00:16.366Z,12.30
2023-03-31T23:03:18.330Z,12.15
2023-03-31T23:06:20.394Z,13.38
2023-03-31T23:09:23.961Z,12.45
2023-03-31T23:12:27.349Z,11.00
2023-03-31T23:15:29.778Z,13.35
2023-03-31T23:18:31.919Z,11.30
2023-03-31T23:21:36.523Z,12.05
2023-03-31T23:24:39.238Z,12.38
2023-03-31T23:27:41.714Z,13.57
2023-03-31T23:30:52.288Z,13.60
2023-03-31T23:33:54.437Z,15.85
2023-03-31T23:36:56.823Z,13.32
2023-03-31T23:39:58.836Z,14.35
2023-03-31T23:43:04.299Z,15.18
2023-03-31T23:46:07.321Z,10.75
2023-03-31T23:49:09.571Z,13.35
2023-03-31T23:52:11.648Z,12.45
2023-03-31T23:55:14.166Z,14.00
2023-03-31T23:58:16.270Z,13.60
